sensor_id;sensor_type;location;lat;lon;timestamp;pressure;altitude;pressure_sealevel;temperature;humidity
21988;BME280;11158;53.404;-1.510;2023-06-22T00:00:44;100785.25;;;21.10;54.93
21988;BME280;11158;53.404;-1.510;2023-06-22T00:03:29;100784.16;;;21.40;53.89
21988;BME280;11158;53.404;-1.510;2023-06-22T00:06:13;100776.19;;;21.89;52.60
21988;BME280;11158;53.404;-1.510;2023-06-22T00:08:56;100782.44;;;21.51;53.81
21988;BME280;11158;53.404;-1.510;2023-06-22T00:11:40;100780.69;;;20.99;55.13
21988;BME280;11158;53.404;-1.510;2023-06-22T00:14:25;100784.84;;;21.19;54.32
21988;BME280;11158;53.404;-1.510;2023-06-22T00:17:08;100778.34;;;21.20;54.26
21988;BME280;11158;53.404;-1.510;2023-06-22T00:19:53;100783.91;;;20.96;55.09
21988;BME280;11158;53.404;-1.510;2023-06-22T00:22:39;100780.34;;;20.96;54.63
21988;BME280;11158;53.404;-1.510;2023-06-22T00:25:23;100771.47;;;20.31;56.83
21988;BME280;11158;53.404;-1.510;2023-06-22T00:28:08;100775.47;;;20.81;55.26
21988;BME280;11158;53.404;-1.510;2023-06-22T00:30:53;100780.88;;;21.09;54.22
21988;BME280;11158;53.404;-1.510;2023-06-22T00:33:38;100779.97;;;21.04;54.45
21988;BME280;11158;53.404;-1.510;2023-06-22T00:36:22;100773.56;;;20.53;56.01
21988;BME280;11158;53.404;-1.510;2023-06-22T00:39:08;100775.09;;;20.60;55.82
21988;BME280;11158;53.404;-1.510;2023-06-22T00:41:52;100776.72;;;20.61;55.98
21988;BME280;11158;53.404;-1.510;2023-06-22T00:44:37;100779.81;;;21.10;54.35
21988;BME280;11158;53.404;-1.510;2023-06-22T00:47:21;100787.06;;;21.39;53.63
21988;BME280;11158;53.404;-1.510;2023-06-22T00:50:06;100776.72;;;21.52;53.18
21988;BME280;11158;53.404;-1.510;2023-06-22T00:52:52;100782.19;;;21.07;54.16
21988;BME280;11158;53.404;-1.510;2023-06-22T00:55:44;100782.97;;;21.36;53.33
21988;BME280;11158;53.404;-1.510;2023-06-22T00:58:36;100782.81;;;21.60;52.72
21988;BME280;11158;53.404;-1.510;2023-06-22T01:01:20;100790.06;;;21.71;52.33
21988;BME280;11158;53.404;-1.510;2023-06-22T01:04:08;100782.91;;;21.48;52.85
21988;BME280;11158;53.404;-1.510;2023-06-22T01:07:02;100786.22;;;21.04;54.30
21988;BME280;11158;53.404;-1.510;2023-06-22T01:13:07;100784.22;;;21.45;52.98
21988;BME280;11158;53.404;-1.510;2023-06-22T01:16:03;100791.69;;;21.38;52.97
21988;BME280;11158;53.404;-1.510;2023-06-22T01:18:52;100804.44;;;21.49;52.78
21988;BME280;11158;53.404;-1.510;2023-06-22T01:21:37;100809.69;;;21.73;52.14
21988;BME280;11158;53.404;-1.510;2023-06-22T01:24:26;100803.09;;;21.86;52.23
21988;BME280;11158;53.404;-1.510;2023-06-22T01:30:16;100816.72;;;22.08;51.24
21988;BME280;11158;53.404;-1.510;2023-06-22T01:33:02;100814.63;;;22.15;51.13
21988;BME280;11158;53.404;-1.510;2023-06-22T01:35:48;100810.22;;;22.09;51.18
21988;BME280;11158;53.404;-1.510;2023-06-22T01:38:32;100809.81;;;22.00;51.69
21988;BME280;11158;53.404;-1.510;2023-06-22T01:41:18;100807.88;;;21.62;52.59
21988;BME280;11158;53.404;-1.510;2023-06-22T01:44:05;100811.41;;;21.62;52.16
21988;BME280;11158;53.404;-1.510;2023-06-22T01:46:53;100818.06;;;21.38;52.58
21988;BME280;11158;53.404;-1.510;2023-06-22T01:49:37;100819.25;;;21.42;52.47
21988;BME280;11158;53.404;-1.510;2023-06-22T01:52:21;100817.59;;;21.74;51.80
21988;BME280;11158;53.404;-1.510;2023-06-22T01:55:05;100813.41;;;22.06;50.76
21988;BME280;11158;53.404;-1.510;2023-06-22T01:57:51;100810.66;;;21.84;50.98
21988;BME280;11158;53.404;-1.510;2023-06-22T02:00:40;100817.03;;;21.56;52.18
21988;BME280;11158;53.404;-1.510;2023-06-22T02:03:43;100816.09;;;21.67;51.89
21988;BME280;11158;53.404;-1.510;2023-06-22T02:06:33;100818.91;;;21.55;52.00
21988;BME280;11158;53.404;-1.510;2023-06-22T02:09:22;100822.22;;;21.74;51.33
21988;BME280;11158;53.404;-1.510;2023-06-22T02:12:10;100829.47;;;21.68;51.39
21988;BME280;11158;53.404;-1.510;2023-06-22T02:14:56;100820.66;;;21.16;52.96
21988;BME280;11158;53.404;-1.510;2023-06-22T02:17:40;100817.47;;;20.90;54.06
21988;BME280;11158;53.404;-1.510;2023-06-22T02:20:28;100829.75;;;21.21;53.13
21988;BME280;11158;53.404;-1.510;2023-06-22T02:23:12;100824.84;;;21.69;51.91
21988;BME280;11158;53.404;-1.510;2023-06-22T02:25:56;100827.31;;;21.87;51.64
21988;BME280;11158;53.404;-1.510;2023-06-22T02:28:41;100830.72;;;21.94;50.89
21988;BME280;11158;53.404;-1.510;2023-06-22T02:31:25;100823.34;;;21.78;51.57
21988;BME280;11158;53.404;-1.510;2023-06-22T02:34:14;100823.63;;;21.43;51.88
21988;BME280;11158;53.404;-1.510;2023-06-22T02:37:02;100822.84;;;21.02;53.55
21988;BME280;11158;53.404;-1.510;2023-06-22T02:39:46;100831.75;;;20.57;54.67
21988;BME280;11158;53.404;-1.510;2023-06-22T02:42:31;100830.13;;;20.44;55.00
21988;BME280;11158;53.404;-1.510;2023-06-22T02:45:15;100837.56;;;20.37;55.36
21988;BME280;11158;53.404;-1.510;2023-06-22T02:47:59;100832.56;;;20.98;54.11
21988;BME280;11158;53.404;-1.510;2023-06-22T02:50:43;100829.16;;;21.19;53.15
21988;BME280;11158;53.404;-1.510;2023-06-22T02:53:27;100832.47;;;20.92;53.76
21988;BME280;11158;53.404;-1.510;2023-06-22T02:56:11;100837.91;;;20.40;55.40
21988;BME280;11158;53.404;-1.510;2023-06-22T02:58:56;100839.31;;;20.43;55.35
21988;BME280;11158;53.404;-1.510;2023-06-22T03:01:44;100835.41;;;21.20;53.47
21988;BME280;11158;53.404;-1.510;2023-06-22T03:04:28;100836.41;;;21.59;52.03
21988;BME280;11158;53.404;-1.510;2023-06-22T03:07:12;100838.63;;;21.17;53.09
21988;BME280;11158;53.404;-1.510;2023-06-22T03:09:56;100831.00;;;21.30;53.18
21988;BME280;11158;53.404;-1.510;2023-06-22T03:12:41;100838.38;;;21.64;51.72
21988;BME280;11158;53.404;-1.510;2023-06-22T03:15:26;100836.56;;;21.52;52.08
21988;BME280;11158;53.404;-1.510;2023-06-22T03:18:13;100838.47;;;21.52;52.40
21988;BME280;11158;53.404;-1.510;2023-06-22T03:20:57;100837.41;;;21.70;51.64
21988;BME280;11158;53.404;-1.510;2023-06-22T03:23:41;100835.38;;;21.48;52.05
21988;BME280;11158;53.404;-1.510;2023-06-22T03:26:26;100840.28;;;21.63;51.70
21988;BME280;11158;53.404;-1.510;2023-06-22T03:29:10;100834.69;;;21.24;52.58
21988;BME280;11158;53.404;-1.510;2023-06-22T03:31:54;100831.81;;;21.31;52.59
21988;BME280;11158;53.404;-1.510;2023-06-22T03:34:38;100825.28;;;21.32;52.69
21988;BME280;11158;53.404;-1.510;2023-06-22T03:37:22;100823.53;;;21.54;52.12
21988;BME280;11158;53.404;-1.510;2023-06-22T03:40:07;100821.88;;;21.70;52.18
21988;BME280;11158;53.404;-1.510;2023-06-22T03:42:51;100820.16;;;21.47;52.41
21988;BME280;11158;53.404;-1.510;2023-06-22T03:45:36;100823.88;;;21.12;53.06
21988;BME280;11158;53.404;-1.510;2023-06-22T03:48:19;100827.56;;;21.06;53.86
21988;BME280;11158;53.404;-1.510;2023-06-22T03:51:04;100829.31;;;20.84;54.30
21988;BME280;11158;53.404;-1.510;2023-06-22T03:53:47;100823.81;;;20.96;53.85
21988;BME280;11158;53.404;-1.510;2023-06-22T03:56:31;100827.75;;;21.45;52.49
21988;BME280;11158;53.404;-1.510;2023-06-22T03:59:16;100829.81;;;21.72;51.66
21988;BME280;11158;53.404;-1.510;2023-06-22T04:02:00;100835.19;;;22.06;51.20
21988;BME280;11158;53.404;-1.510;2023-06-22T04:04:44;100837.69;;;22.24;50.33
21988;BME280;11158;53.404;-1.510;2023-06-22T04:07:28;100837.25;;;22.32;50.23
21988;BME280;11158;53.404;-1.510;2023-06-22T04:10:12;100835.34;;;22.33;50.26
21988;BME280;11158;53.404;-1.510;2023-06-22T04:12:56;100835.59;;;22.53;49.72
21988;BME280;11158;53.404;-1.510;2023-06-22T04:15:40;100831.22;;;22.30;50.10
21988;BME280;11158;53.404;-1.510;2023-06-22T04:18:24;100832.16;;;22.02;50.90
21988;BME280;11158;53.404;-1.510;2023-06-22T04:21:10;100829.34;;;22.14;50.73
21988;BME280;11158;53.404;-1.510;2023-06-22T04:23:54;100835.03;;;22.12;50.63
21988;BME280;11158;53.404;-1.510;2023-06-22T04:26:38;100833.78;;;22.20;50.06
21988;BME280;11158;53.404;-1.510;2023-06-22T04:29:25;100830.22;;;22.36;49.67
21988;BME280;11158;53.404;-1.510;2023-06-22T04:32:12;100837.47;;;22.31;49.94
21988;BME280;11158;53.404;-1.510;2023-06-22T04:34:57;100829.38;;;22.58;49.25
21988;BME280;11158;53.404;-1.510;2023-06-22T04:37:41;100830.72;;;22.77;48.96
21988;BME280;11158;53.404;-1.510;2023-06-22T04:40:25;100828.38;;;22.86;48.60
21988;BME280;11158;53.404;-1.510;2023-06-22T04:43:09;100823.94;;;23.02;48.51
21988;BME280;11158;53.404;-1.510;2023-06-22T04:45:53;100825.94;;;22.90;48.25
21988;BME280;11158;53.404;-1.510;2023-06-22T04:48:37;100826.50;;;22.92;48.57
21988;BME280;11158;53.404;-1.510;2023-06-22T04:51:22;100824.91;;;23.18;48.10
21988;BME280;11158;53.404;-1.510;2023-06-22T04:54:06;100819.84;;;23.32;47.54
21988;BME280;11158;53.404;-1.510;2023-06-22T04:56:50;100816.19;;;23.16;47.61
21988;BME280;11158;53.404;-1.510;2023-06-22T04:59:40;100818.41;;;23.24;47.72
21988;BME280;11158;53.404;-1.510;2023-06-22T05:02:25;100818.22;;;23.31;47.48
21988;BME280;11158;53.404;-1.510;2023-06-22T05:05:13;100818.25;;;23.36;47.31
21988;BME280;11158;53.404;-1.510;2023-06-22T05:07:57;100822.53;;;23.59;47.40
21988;BME280;11158;53.404;-1.510;2023-06-22T05:10:44;100825.47;;;23.52;47.35
21988;BME280;11158;53.404;-1.510;2023-06-22T05:13:28;100832.75;;;23.74;46.77
21988;BME280;11158;53.404;-1.510;2023-06-22T05:16:12;100832.84;;;23.84;46.64
21988;BME280;11158;53.404;-1.510;2023-06-22T05:18:56;100827.97;;;23.91;46.12
21988;BME280;11158;53.404;-1.510;2023-06-22T05:21:41;100845.25;;;23.70;46.74
21988;BME280;11158;53.404;-1.510;2023-06-22T05:24:25;100836.47;;;23.62;47.00
21988;BME280;11158;53.404;-1.510;2023-06-22T05:27:09;100843.41;;;23.43;47.10
21988;BME280;11158;53.404;-1.510;2023-06-22T05:29:54;100841.31;;;23.50;46.88
21988;BME280;11158;53.404;-1.510;2023-06-22T05:32:38;100836.69;;;23.88;46.35
21988;BME280;11158;53.404;-1.510;2023-06-22T05:35:22;100833.28;;;24.08;45.87
21988;BME280;11158;53.404;-1.510;2023-06-22T05:38:06;100843.78;;;24.32;44.97
21988;BME280;11158;53.404;-1.510;2023-06-22T05:40:50;100843.75;;;24.74;44.34
21988;BME280;11158;53.404;-1.510;2023-06-22T05:43:34;100846.25;;;25.01;43.65
21988;BME280;11158;53.404;-1.510;2023-06-22T05:46:19;100842.28;;;25.45;42.95
21988;BME280;11158;53.404;-1.510;2023-06-22T05:49:03;100839.25;;;25.67;42.77
21988;BME280;11158;53.404;-1.510;2023-06-22T05:51:47;100837.88;;;26.00;42.44
21988;BME280;11158;53.404;-1.510;2023-06-22T05:54:31;100838.66;;;26.16;41.65
21988;BME280;11158;53.404;-1.510;2023-06-22T05:57:15;100841.16;;;25.97;41.33
21988;BME280;11158;53.404;-1.510;2023-06-22T05:59:59;100843.00;;;26.32;40.99
21988;BME280;11158;53.404;-1.510;2023-06-22T06:02:43;100844.16;;;26.06;41.46
21988;BME280;11158;53.404;-1.510;2023-06-22T06:05:27;100844.97;;;25.86;41.18
21988;BME280;11158;53.404;-1.510;2023-06-22T06:08:11;100846.63;;;25.41;42.28
21988;BME280;11158;53.404;-1.510;2023-06-22T06:10:56;100844.44;;;25.74;41.75
21988;BME280;11158;53.404;-1.510;2023-06-22T06:13:41;100842.78;;;25.62;41.95
21988;BME280;11158;53.404;-1.510;2023-06-22T06:16:25;100832.94;;;25.92;41.58
21988;BME280;11158;53.404;-1.510;2023-06-22T06:19:09;100844.97;;;25.76;41.68
21988;BME280;11158;53.404;-1.510;2023-06-22T06:21:53;100841.16;;;26.02;41.56
21988;BME280;11158;53.404;-1.510;2023-06-22T06:24:37;100843.19;;;26.57;40.33
21988;BME280;11158;53.404;-1.510;2023-06-22T06:27:21;100849.91;;;26.09;41.15
21988;BME280;11158;53.404;-1.510;2023-06-22T06:30:14;100855.28;;;26.56;40.03
21988;BME280;11158;53.404;-1.510;2023-06-22T06:32:58;100849.47;;;27.12;38.79
21988;BME280;11158;53.404;-1.510;2023-06-22T06:35:42;100851.13;;;27.13;37.06
21988;BME280;11158;53.404;-1.510;2023-06-22T06:38:27;100852.47;;;27.21;36.99
21988;BME280;11158;53.404;-1.510;2023-06-22T06:41:11;100852.91;;;27.38;37.99
21988;BME280;11158;53.404;-1.510;2023-06-22T06:43:55;100851.63;;;27.60;37.90
21988;BME280;11158;53.404;-1.510;2023-06-22T06:46:40;100855.19;;;27.60;37.83
21988;BME280;11158;53.404;-1.510;2023-06-22T06:49:26;100854.03;;;27.66;37.00
21988;BME280;11158;53.404;-1.510;2023-06-22T06:52:10;100855.91;;;27.71;35.53
21988;BME280;11158;53.404;-1.510;2023-06-22T06:54:54;100858.13;;;27.69;35.48
21988;BME280;11158;53.404;-1.510;2023-06-22T06:57:38;100856.06;;;27.11;36.58
21988;BME280;11158;53.404;-1.510;2023-06-22T07:00:23;100861.31;;;27.52;36.34
21988;BME280;11158;53.404;-1.510;2023-06-22T07:03:08;100867.81;;;27.61;36.73
21988;BME280;11158;53.404;-1.510;2023-06-22T07:05:53;100861.94;;;28.07;36.53
21988;BME280;11158;53.404;-1.510;2023-06-22T07:08:37;100865.50;;;28.80;35.25
21988;BME280;11158;53.404;-1.510;2023-06-22T07:11:21;100865.47;;;29.23;34.38
21988;BME280;11158;53.404;-1.510;2023-06-22T07:14:05;100856.31;;;30.54;32.33
21988;BME280;11158;53.404;-1.510;2023-06-22T07:16:49;100855.75;;;31.75;30.73
21988;BME280;11158;53.404;-1.510;2023-06-22T07:19:34;100858.53;;;32.06;30.12
21988;BME280;11158;53.404;-1.510;2023-06-22T07:22:18;100873.44;;;31.28;30.80
21988;BME280;11158;53.404;-1.510;2023-06-22T07:25:02;100863.25;;;30.37;31.26
21988;BME280;11158;53.404;-1.510;2023-06-22T07:28:04;100861.19;;;31.21;29.92
21988;BME280;11158;53.404;-1.510;2023-06-22T07:30:48;100846.88;;;34.56;25.29
21988;BME280;11158;53.404;-1.510;2023-06-22T07:33:32;100843.19;;;38.05;21.41
21988;BME280;11158;53.404;-1.510;2023-06-22T07:36:17;100842.41;;;39.50;19.36
21988;BME280;11158;53.404;-1.510;2023-06-22T07:39:02;100847.19;;;39.72;19.15
21988;BME280;11158;53.404;-1.510;2023-06-22T07:41:47;100850.72;;;39.27;19.19
21988;BME280;11158;53.404;-1.510;2023-06-22T07:44:31;100856.91;;;36.98;21.95
21988;BME280;11158;53.404;-1.510;2023-06-22T07:47:15;100858.53;;;35.00;23.91
21988;BME280;11158;53.404;-1.510;2023-06-22T07:50:02;100868.88;;;33.85;25.15
21988;BME280;11158;53.404;-1.510;2023-06-22T07:52:46;100875.44;;;33.19;25.78
21988;BME280;11158;53.404;-1.510;2023-06-22T07:55:31;100884.69;;;30.54;30.28
21988;BME280;11158;53.404;-1.510;2023-06-22T07:58:18;100877.50;;;29.46;31.67
21988;BME280;11158;53.404;-1.510;2023-06-22T08:01:04;100882.19;;;28.65;33.10
21988;BME280;11158;53.404;-1.510;2023-06-22T08:03:48;100879.25;;;29.23;32.92
21988;BME280;11158;53.404;-1.510;2023-06-22T08:06:33;100880.94;;;29.19;32.97
21988;BME280;11158;53.404;-1.510;2023-06-22T08:09:17;100877.72;;;28.20;34.98
21988;BME280;11158;53.404;-1.510;2023-06-22T08:12:01;100880.03;;;27.74;36.68
21988;BME280;11158;53.404;-1.510;2023-06-22T08:14:45;100885.75;;;27.48;36.87
21988;BME280;11158;53.404;-1.510;2023-06-22T08:17:30;100878.91;;;27.80;36.93
21988;BME280;11158;53.404;-1.510;2023-06-22T08:20:15;100875.31;;;28.14;36.07
21988;BME280;11158;53.404;-1.510;2023-06-22T08:22:59;100884.94;;;28.65;34.59
21988;BME280;11158;53.404;-1.510;2023-06-22T08:25:49;100881.63;;;27.85;35.93
21988;BME280;11158;53.404;-1.510;2023-06-22T08:28:34;100880.97;;;28.76;34.08
21988;BME280;11158;53.404;-1.510;2023-06-22T08:31:18;100887.97;;;28.39;34.87
21988;BME280;11158;53.404;-1.510;2023-06-22T08:34:02;100891.25;;;26.08;39.43
21988;BME280;11158;53.404;-1.510;2023-06-22T08:36:47;100886.44;;;26.70;37.92
21988;BME280;11158;53.404;-1.510;2023-06-22T08:39:35;100879.94;;;26.45;38.21
21988;BME280;11158;53.404;-1.510;2023-06-22T08:42:19;100879.34;;;26.69;37.40
21988;BME280;11158;53.404;-1.510;2023-06-22T08:45:04;100883.50;;;26.56;38.00
21988;BME280;11158;53.404;-1.510;2023-06-22T08:47:48;100880.50;;;26.37;38.38
21988;BME280;11158;53.404;-1.510;2023-06-22T08:50:32;100880.34;;;26.88;38.37
21988;BME280;11158;53.404;-1.510;2023-06-22T08:53:17;100876.25;;;28.04;36.38
21988;BME280;11158;53.404;-1.510;2023-06-22T08:56:04;100886.22;;;26.56;39.38
21988;BME280;11158;53.404;-1.510;2023-06-22T08:58:48;100881.66;;;25.64;41.55
21988;BME280;11158;53.404;-1.510;2023-06-22T09:01:32;100882.78;;;25.89;41.42
21988;BME280;11158;53.404;-1.510;2023-06-22T09:04:16;100884.00;;;25.04;42.46
21988;BME280;11158;53.404;-1.510;2023-06-22T09:07:04;100887.97;;;25.65;41.61
21988;BME280;11158;53.404;-1.510;2023-06-22T09:09:49;100884.97;;;26.07;40.72
21988;BME280;11158;53.404;-1.510;2023-06-22T09:12:33;100882.09;;;25.05;42.63
21988;BME280;11158;53.404;-1.510;2023-06-22T09:15:18;100884.69;;;25.73;41.69
21988;BME280;11158;53.404;-1.510;2023-06-22T09:18:05;100877.97;;;26.61;39.58
21988;BME280;11158;53.404;-1.510;2023-06-22T09:20:49;100876.03;;;26.72;39.48
21988;BME280;11158;53.404;-1.510;2023-06-22T09:23:33;100880.19;;;27.58;38.03
21988;BME280;11158;53.404;-1.510;2023-06-22T09:26:18;100887.88;;;26.47;40.36
21988;BME280;11158;53.404;-1.510;2023-06-22T09:29:06;100889.03;;;27.01;38.82
21988;BME280;11158;53.404;-1.510;2023-06-22T09:31:50;100882.91;;;27.24;39.35
21988;BME280;11158;53.404;-1.510;2023-06-22T09:34:37;100888.53;;;26.99;38.82
21988;BME280;11158;53.404;-1.510;2023-06-22T09:37:21;100886.53;;;27.09;38.83
21988;BME280;11158;53.404;-1.510;2023-06-22T09:40:06;100887.59;;;26.53;39.96
21988;BME280;11158;53.404;-1.510;2023-06-22T09:42:54;100891.47;;;26.42;41.22
21988;BME280;11158;53.404;-1.510;2023-06-22T09:45:41;100888.78;;;26.06;41.40
21988;BME280;11158;53.404;-1.510;2023-06-22T09:48:27;100892.03;;;25.47;41.79
21988;BME280;11158;53.404;-1.510;2023-06-22T09:51:20;100898.66;;;25.92;41.30
21988;BME280;11158;53.404;-1.510;2023-06-22T09:54:06;100898.66;;;25.61;41.49
21988;BME280;11158;53.404;-1.510;2023-06-22T09:56:52;100900.25;;;25.42;40.48
21988;BME280;11158;53.404;-1.510;2023-06-22T09:59:36;100896.34;;;26.71;38.74
21988;BME280;11158;53.404;-1.510;2023-06-22T10:02:21;100891.31;;;28.36;34.51
21988;BME280;11158;53.404;-1.510;2023-06-22T10:05:06;100896.19;;;29.11;33.28
21988;BME280;11158;53.404;-1.510;2023-06-22T10:07:51;100881.50;;;30.19;32.54
21988;BME280;11158;53.404;-1.510;2023-06-22T10:10:36;100891.72;;;27.95;34.56
21988;BME280;11158;53.404;-1.510;2023-06-22T10:13:23;100880.25;;;29.27;33.94
21988;BME280;11158;53.404;-1.510;2023-06-22T10:16:07;100891.69;;;28.24;35.25
21988;BME280;11158;53.404;-1.510;2023-06-22T10:18:52;100890.59;;;27.96;35.84
21988;BME280;11158;53.404;-1.510;2023-06-22T10:21:37;100891.56;;;28.64;34.42
21988;BME280;11158;53.404;-1.510;2023-06-22T10:24:21;100881.84;;;29.33;33.55
21988;BME280;11158;53.404;-1.510;2023-06-22T10:27:05;100887.94;;;29.82;32.53
21988;BME280;11158;53.404;-1.510;2023-06-22T10:29:49;100906.50;;;28.57;34.67
21988;BME280;11158;53.404;-1.510;2023-06-22T10:32:33;100896.06;;;29.92;32.99
21988;BME280;11158;53.404;-1.510;2023-06-22T10:35:18;100901.63;;;29.16;34.02
21988;BME280;11158;53.404;-1.510;2023-06-22T10:38:03;100893.09;;;30.35;32.47
21988;BME280;11158;53.404;-1.510;2023-06-22T10:40:47;100900.00;;;27.06;37.78
21988;BME280;11158;53.404;-1.510;2023-06-22T10:43:31;100904.88;;;27.14;38.61
21988;BME280;11158;53.404;-1.510;2023-06-22T10:46:16;100899.91;;;28.00;36.90
21988;BME280;11158;53.404;-1.510;2023-06-22T10:49:00;100906.78;;;29.23;34.79
21988;BME280;11158;53.404;-1.510;2023-06-22T10:51:45;100901.69;;;29.68;33.71
21988;BME280;11158;53.404;-1.510;2023-06-22T10:54:29;100910.41;;;28.22;35.89
21988;BME280;11158;53.404;-1.510;2023-06-22T10:57:13;100909.38;;;28.42;35.63
21988;BME280;11158;53.404;-1.510;2023-06-22T10:59:57;100906.91;;;29.13;34.58
21988;BME280;11158;53.404;-1.510;2023-06-22T11:02:42;100906.78;;;29.23;34.36
21988;BME280;11158;53.404;-1.510;2023-06-22T11:05:26;100913.31;;;27.72;36.86
21988;BME280;11158;53.404;-1.510;2023-06-22T11:08:10;100911.13;;;28.04;36.68
21988;BME280;11158;53.404;-1.510;2023-06-22T11:10:55;100908.91;;;26.77;39.20
21988;BME280;11158;53.404;-1.510;2023-06-22T11:13:39;100904.44;;;27.46;37.98
21988;BME280;11158;53.404;-1.510;2023-06-22T11:16:23;100912.72;;;27.75;37.56
21988;BME280;11158;53.404;-1.510;2023-06-22T11:19:08;100907.97;;;28.50;36.90
21988;BME280;11158;53.404;-1.510;2023-06-22T11:21:55;100914.75;;;27.20;40.51
21988;BME280;11158;53.404;-1.510;2023-06-22T11:24:40;100916.66;;;27.20;40.75
21988;BME280;11158;53.404;-1.510;2023-06-22T11:27:24;100916.06;;;27.33;41.19
21988;BME280;11158;53.404;-1.510;2023-06-22T11:30:09;100921.72;;;26.97;43.04
21988;BME280;11158;53.404;-1.510;2023-06-22T11:32:53;100920.47;;;26.53;44.85
21988;BME280;11158;53.404;-1.510;2023-06-22T11:35:37;100914.47;;;26.57;43.69
21988;BME280;11158;53.404;-1.510;2023-06-22T11:38:22;100916.19;;;26.17;45.78
21988;BME280;11158;53.404;-1.510;2023-06-22T11:41:07;100920.00;;;25.64;48.48
21988;BME280;11158;53.404;-1.510;2023-06-22T11:43:51;100925.44;;;25.49;51.34
21988;BME280;11158;53.404;-1.510;2023-06-22T11:46:35;100923.22;;;25.25;52.74
21988;BME280;11158;53.404;-1.510;2023-06-22T11:49:19;100915.34;;;25.55;51.84
21988;BME280;11158;53.404;-1.510;2023-06-22T11:52:04;100919.69;;;26.38;49.47
21988;BME280;11158;53.404;-1.510;2023-06-22T11:54:48;100915.75;;;26.85;46.13
21988;BME280;11158;53.404;-1.510;2023-06-22T11:57:35;100910.81;;;26.82;45.17
21988;BME280;11158;53.404;-1.510;2023-06-22T12:00:20;100917.19;;;26.67;47.04
21988;BME280;11158;53.404;-1.510;2023-06-22T12:03:08;100922.72;;;26.16;49.28
21988;BME280;11158;53.404;-1.510;2023-06-22T12:05:53;100922.22;;;25.93;50.81
21988;BME280;11158;53.404;-1.510;2023-06-22T12:08:38;100932.03;;;25.68;51.79
21988;BME280;11158;53.404;-1.510;2023-06-22T12:11:22;100930.06;;;26.66;49.65
21988;BME280;11158;53.404;-1.510;2023-06-22T12:14:06;100911.06;;;27.79;47.85
21988;BME280;11158;53.404;-1.510;2023-06-22T12:16:50;100907.19;;;28.68;41.89
21988;BME280;11158;53.404;-1.510;2023-06-22T12:19:35;100906.69;;;28.85;40.90
21988;BME280;11158;53.404;-1.510;2023-06-22T12:22:19;100907.41;;;29.34;42.33
21988;BME280;11158;53.404;-1.510;2023-06-22T12:25:04;100898.13;;;30.14;38.92
21988;BME280;11158;53.404;-1.510;2023-06-22T12:27:48;100894.44;;;30.19;38.43
21988;BME280;11158;53.404;-1.510;2023-06-22T12:30:33;100896.50;;;30.13;38.29
21988;BME280;11158;53.404;-1.510;2023-06-22T12:33:18;100890.78;;;30.23;36.87
21988;BME280;11158;53.404;-1.510;2023-06-22T12:36:03;100890.69;;;30.84;35.54
21988;BME280;11158;53.404;-1.510;2023-06-22T12:38:50;100892.22;;;30.21;37.37
21988;BME280;11158;53.404;-1.510;2023-06-22T12:41:35;100888.75;;;30.15;36.61
21988;BME280;11158;53.404;-1.510;2023-06-22T12:44:19;100887.09;;;29.49;36.46
21988;BME280;11158;53.404;-1.510;2023-06-22T12:47:03;100887.09;;;29.68;37.46
21988;BME280;11158;53.404;-1.510;2023-06-22T12:49:48;100884.75;;;29.23;37.27
21988;BME280;11158;53.404;-1.510;2023-06-22T12:52:32;100881.63;;;29.81;37.21
21988;BME280;11158;53.404;-1.510;2023-06-22T12:55:16;100876.06;;;28.73;38.99
21988;BME280;11158;53.404;-1.510;2023-06-22T12:58:00;100887.56;;;28.27;40.41
21988;BME280;11158;53.404;-1.510;2023-06-22T13:00:45;100885.09;;;28.54;40.04
21988;BME280;11158;53.404;-1.510;2023-06-22T13:03:30;100882.56;;;28.29;39.35
21988;BME280;11158;53.404;-1.510;2023-06-22T13:06:14;100885.31;;;28.58;41.01
21988;BME280;11158;53.404;-1.510;2023-06-22T13:08:58;100876.69;;;28.65;38.63
21988;BME280;11158;53.404;-1.510;2023-06-22T13:11:43;100867.22;;;29.52;37.07
21988;BME280;11158;53.404;-1.510;2023-06-22T13:14:27;100872.75;;;30.59;34.66
21988;BME280;11158;53.404;-1.510;2023-06-22T13:17:11;100859.13;;;30.07;33.87
21988;BME280;11158;53.404;-1.510;2023-06-22T13:19:56;100866.97;;;29.67;35.47
21988;BME280;11158;53.404;-1.510;2023-06-22T13:22:40;100864.47;;;30.59;34.53
21988;BME280;11158;53.404;-1.510;2023-06-22T13:25:26;100862.94;;;31.17;32.72
21988;BME280;11158;53.404;-1.510;2023-06-22T13:28:10;100867.59;;;29.97;33.98
21988;BME280;11158;53.404;-1.510;2023-06-22T13:30:57;100864.44;;;30.17;34.57
21988;BME280;11158;53.404;-1.510;2023-06-22T13:33:41;100866.59;;;30.20;33.55
21988;BME280;11158;53.404;-1.510;2023-06-22T13:36:25;100864.47;;;30.86;33.75
21988;BME280;11158;53.404;-1.510;2023-06-22T13:39:09;100866.41;;;30.86;31.90
21988;BME280;11158;53.404;-1.510;2023-06-22T13:41:53;100862.00;;;31.21;31.61
21988;BME280;11158;53.404;-1.510;2023-06-22T13:44:37;100858.47;;;31.43;31.36
21988;BME280;11158;53.404;-1.510;2023-06-22T13:47:21;100859.38;;;31.84;30.20
21988;BME280;11158;53.404;-1.510;2023-06-22T13:50:05;100863.16;;;30.29;31.90
21988;BME280;11158;53.404;-1.510;2023-06-22T13:52:50;100862.78;;;30.02;32.02
21988;BME280;11158;53.404;-1.510;2023-06-22T13:55:34;100858.34;;;30.62;31.75
21988;BME280;11158;53.404;-1.510;2023-06-22T13:58:18;100866.72;;;30.71;31.48
21988;BME280;11158;53.404;-1.510;2023-06-22T14:01:04;100859.03;;;30.95;31.53
21988;BME280;11158;53.404;-1.510;2023-06-22T14:03:51;100853.13;;;31.10;30.72
21988;BME280;11158;53.404;-1.510;2023-06-22T14:06:35;100853.00;;;31.29;30.18
21988;BME280;11158;53.404;-1.510;2023-06-22T14:09:19;100861.28;;;31.29;30.82
21988;BME280;11158;53.404;-1.510;2023-06-22T14:12:04;100851.06;;;30.94;30.73
21988;BME280;11158;53.404;-1.510;2023-06-22T14:14:50;100857.03;;;31.09;31.28
21988;BME280;11158;53.404;-1.510;2023-06-22T14:17:34;100854.97;;;31.38;30.52